Poplar Ridge, New York
Current Conditions -  °F | °C
As of 6:56 AM on Thursday 23 Oct 2014 (Local Time) from KITH Reporting Station
Overcast Overcast  
Wind Chill: 38°   Ceiling: 1400
Heat Index: 44°   Visibility: 10mi
Dew Point: 40°   Wind: 13mph
Humidity: 86%   Direction: 340°NNW
Pressure: 30"   Gusts: 23mph
Location:  42.74°N, 76.62°W
Report Text: KITH 231056Z 34011G20KT 10SM OVC014 07/04 A3000 RMK AO2 T00660044 SLP164
Loading
Personal Weather Stations






























Interactive Weather Map
Tropical Storm Tracking
New forecast layout! Learn more

10-Day Weather Forecast

Advertisements
Track Severe Weather on mobile